Time;durP1;ratioP1;P1;durP2;ratioP2;P2;SDS_P1;SDS_P2;PMS_P1;PMS_P2;Temp;Humidity;BMP_temperature;BMP_pressure;BME280_temperature;BME280_humidity;BME280_pressure;Samples;Min_cycle;Max_cycle;Signal;HPM_P1;HPM_P2
2022/11/19 00:00:52;;;;;;;;;;;;;;;27.34;54.34;95805.00;609204;233;65191;-68
2022/11/19 00:03:20;;;;;;;;;;;;;;;27.34;53.66;95815.01;609171;233;64840;-68
2022/11/19 00:05:49;;;;;;;;;;;;;;;27.33;53.40;95816.12;609184;233;67210;-68
2022/11/19 00:08:18;;;;;;;;;;;;;;;27.33;53.95;95821.52;609154;233;65102;-68
2022/11/19 00:10:46;;;;;;;;;;;;;;;27.31;55.21;95829.96;609176;233;64940;-68
2022/11/19 00:13:14;;;;;;;;;;;;;;;27.30;53.81;95833.77;609201;233;67124;-68
2022/11/19 00:15:41;;;;;;;;;;;;;;;27.31;56.28;95842.64;609213;233;65094;-66
2022/11/19 00:18:09;;;;;;;;;;;;;;;27.28;54.59;95841.41;609182;233;66900;-66
2022/11/19 00:20:36;;;;;;;;;;;;;;;27.29;54.33;95843.00;609188;233;67163;-66
2022/11/19 00:23:04;;;;;;;;;;;;;;;27.28;55.90;95844.10;609146;233;65194;-66
2022/11/19 00:25:31;;;;;;;;;;;;;;;27.26;55.17;95849.08;609188;233;67456;-66
2022/11/19 00:27:59;;;;;;;;;;;;;;;27.27;55.03;95855.25;609238;233;66936;-66
2022/11/19 00:30:26;;;;;;;;;;;;;;;27.27;54.48;95852.55;609207;233;65038;-66
2022/11/19 00:32:55;;;;;;;;;;;;;;;27.25;54.03;95850.18;608330;233;64915;-66
2022/11/19 00:35:23;;;;;;;;;;;;;;;27.25;56.09;95857.49;606682;234;67090;-66
2022/11/19 00:37:50;;;;;;;;;;;;;;;27.23;55.38;95864.02;606676;234;65050;-66
2022/11/19 00:40:18;;;;;;;;;;;;;;;27.21;54.35;95860.88;606768;234;67202;-66
2022/11/19 00:43:45;;;;;;;;;;;;;;;27.21;55.75;95882.45;606687;234;67137;-66
2022/11/19 00:45:14;;;;;;;;;;;;;;;27.21;55.07;95895.94;605965;234;63025;-66
2022/11/19 00:47:42;;;;;;;;;;;;;;;27.20;56.13;95891.67;606645;234;64965;-66
2022/11/19 00:50:09;;;;;;;;;;;;;;;27.19;55.60;95895.48;606681;234;67093;-66
2022/11/19 00:52:37;;;;;;;;;;;;;;;27.18;56.34;95901.23;606734;234;65090;-66
2022/11/19 00:55:05;;;;;;;;;;;;;;;27.18;55.54;95903.92;606677;234;64913;-66
2022/11/19 00:57:32;;;;;;;;;;;;;;;27.16;56.59;95912.34;606698;234;67094;-66
2022/11/19 01:00:00;;;;;;;;;;;;;;;27.16;56.32;95917.73;606685;234;65176;-66
2022/11/19 01:02:27;;;;;;;;;;;;;;;27.15;54.44;95924.23;606668;234;67240;-66
2022/11/19 01:04:55;;;;;;;;;;;;;;;27.16;55.79;95920.43;606776;234;66962;-65
2022/11/19 01:07:22;;;;;;;;;;;;;;;27.14;54.99;95930.73;606684;234;65097;-66
2022/11/19 01:09:50;;;;;;;;;;;;;;;27.14;54.83;95929.95;606672;234;67245;-66
2022/11/19 01:12:17;;;;;;;;;;;;;;;27.13;55.88;95931.87;606670;234;67405;-66
2022/11/19 01:14:45;;;;;;;;;;;;;;;27.12;56.38;95941.09;606658;234;65109;-66
2022/11/19 01:17:12;;;;;;;;;;;;;;;27.11;54.60;95950.28;606737;234;67189;-65
2022/11/19 01:19:40;;;;;;;;;;;;;;;27.10;56.24;95947.94;606726;234;67119;-66
2022/11/19 01:22:07;;;;;;;;;;;;;;;27.10;56.25;95959.51;606693;234;65052;-66
2022/11/19 01:24:34;;;;;;;;;;;;;;;27.08;54.77;95950.96;606675;234;67211;-63
2022/11/19 01:27:02;;;;;;;;;;;;;;;27.08;52.76;95950.96;606673;234;67148;-65
2022/11/19 01:29:29;;;;;;;;;;;;;;;27.09;54.15;95954.44;606689;234;63034;-66
2022/11/19 01:31:57;;;;;;;;;;;;;;;27.08;55.89;95944.79;606712;234;64291;-66
2022/11/19 01:34:24;;;;;;;;;;;;;;;27.07;56.30;95940.53;605562;233;64947;-66
2022/11/19 01:36:52;;;;;;;;;;;;;;;27.06;55.66;95928.15;605500;234;63060;-66
2022/11/19 01:39:19;;;;;;;;;;;;;;;27.04;55.69;95920.41;605493;234;65209;-66
2022/11/19 01:41:47;;;;;;;;;;;;;;;27.05;56.52;95918.50;605506;234;65035;-66
2022/11/19 01:44:32;;;;;;;;;;;;;;;27.02;54.43;95922.66;605560;234;65061;-63
2022/11/19 01:47:00;;;;;;;;;;;;;;;27.02;55.86;95917.27;605502;234;65084;-66
2022/11/19 01:49:27;;;;;;;;;;;;;;;27.02;56.61;95922.66;605527;234;65911;-64
2022/11/19 01:51:56;;;;;;;;;;;;;;;27.01;56.45;95919.17;605524;234;65138;-64
2022/11/19 01:54:25;;;;;;;;;;;;;;;27.00;56.01;95922.20;605489;234;67255;-65
2022/11/19 01:56:54;;;;;;;;;;;;;;;26.99;55.99;95934.89;605525;234;64934;-67
2022/11/19 01:59:22;;;;;;;;;;;;;;;26.99;57.56;95926.02;605554;234;62996;-67
2022/11/19 02:01:50;;;;;;;;;;;;;;;26.97;56.73;95931.73;605478;234;64939;-67
2022/11/19 02:04:18;;;;;;;;;;;;;;;26.96;55.44;95942.88;605541;234;64878;-67
2022/11/19 02:06:47;;;;;;;;;;;;;;;26.97;56.02;95933.66;605496;234;62844;-67
2022/11/19 02:09:14;;;;;;;;;;;;;;;26.95;55.21;95943.98;605518;234;65057;-67
2022/11/19 02:11:46;;;;;;;;;;;;;;;26.95;56.15;95941.28;605560;234;65287;-67
2022/11/19 02:14:31;;;;;;;;;;;;;;;26.94;55.56;95950.50;605507;234;62929;-67
2022/11/19 02:17:15;;;;;;;;;;;;;;;26.94;56.69;95951.29;605520;234;64975;-67
2022/11/19 02:19:46;;;;;;;;;;;;;;;26.93;54.89;95957.03;605545;234;68342;-67
2022/11/19 02:22:32;;;;;;;;;;;;;;;26.92;56.58;95958.13;605096;234;63264;-67
2022/11/19 02:25:01;;;;;;;;;;;;;;;26.90;57.43;95952.28;605546;234;66891;-69
2022/11/19 02:27:45;;;;;;;;;;;;;;;26.89;56.28;95951.50;605256;234;67066;-67
2022/11/19 02:30:16;;;;;;;;;;;;;;;26.89;57.06;95958.80;604830;234;62926;-67
2022/11/19 02:32:47;;;;;;;;;;;;;;;26.88;56.40;95946.46;605411;234;66942;-66
2022/11/19 02:35:19;;;;;;;;;;;;;;;26.87;56.96;95944.87;605485;234;64850;-67
2022/11/19 02:37:51;;;;;;;;;;;;;;;26.86;56.91;95948.70;605543;234;65071;-66
2022/11/19 02:40:20;;;;;;;;;;;;;;;26.85;57.32;95952.52;605506;234;66873;-66
2022/11/19 02:42:52;;;;;;;;;;;;;;;26.85;57.73;95952.52;605451;234;64991;-67
2022/11/19 02:45:24;;;;;;;;;;;;;;;26.84;57.01;95959.02;605563;234;65000;-67
2022/11/19 02:47:56;;;;;;;;;;;;;;;26.83;56.21;95971.72;597347;234;64761;-67
2022/11/19 02:50:28;;;;;;;;;;;;;;;26.82;56.88;95963.95;605535;234;64434;-65
2022/11/19 02:52:56;;;;;;;;;;;;;;;26.82;56.86;95969.34;605462;234;63121;-65
2022/11/19 02:55:23;;;;;;;;;;;;;;;26.81;57.14;95957.00;605494;234;65301;-65
2022/11/19 02:57:52;;;;;;;;;;;;;;;26.81;55.35;95967.78;605507;234;64890;-65
2022/11/19 03:05:54;;;;;;;;;;;;;;;26.77;56.91;95970.36;605517;234;65048;-64
2022/11/19 03:08:22;;;;;;;;;;;;;;;26.77;57.99;95994.63;605449;234;70389;-66
2022/11/19 03:10:57;;;;;;;;;;;;;;;26.74;57.50;95993.38;605537;234;67176;-66
2022/11/19 03:19:02;;;;;;;;;;;;;;;26.74;57.46;96011.46;605538;234;67273;-68
2022/11/19 03:21:37;;;;;;;;;;;;;;;26.73;56.26;96023.34;605463;234;65030;-66
2022/11/19 03:24:06;;;;;;;;;;;;;;;26.71;55.71;96020.19;605174;234;65352;-67
2022/11/19 03:26:35;;;;;;;;;;;;;;;26.69;56.35;96020.53;605520;234;67274;-66
2022/11/19 03:29:04;;;;;;;;;;;;;;;26.69;56.46;96028.62;605479;234;67213;-64
2022/11/19 03:31:32;;;;;;;;;;;;;;;26.67;57.94;96041.62;605477;234;65680;-64
2022/11/19 03:34:01;;;;;;;;;;;;;;;26.67;57.56;96049.71;605524;234;65118;-64
2022/11/19 03:36:33;;;;;;;;;;;;;;;26.67;56.84;96071.27;605430;234;72208;-64
2022/11/19 03:39:02;;;;;;;;;;;;;;;26.67;57.75;96075.87;605494;234;62926;-65
2022/11/19 03:41:31;;;;;;;;;;;;;;;26.66;56.21;96080.48;605492;234;67867;-65
2022/11/19 03:43:59;;;;;;;;;;;;;;;26.66;56.16;96096.66;605472;234;65190;-65
2022/11/19 03:46:29;;;;;;;;;;;;;;;26.65;56.93;96108.53;605510;234;62888;-64
2022/11/19 03:48:57;;;;;;;;;;;;;;;26.65;55.81;96111.23;605520;234;64927;-65
2022/11/19 03:51:36;;;;;;;;;;;;;;;26.65;57.93;96121.23;605523;234;64957;-65
2022/11/19 03:54:04;;;;;;;;;;;;;;;26.63;58.12;96129.66;605465;234;65130;-64
2022/11/19 03:56:33;;;;;;;;;;;;;;;26.63;57.50;96142.31;605536;234;67241;-64
2022/11/19 03:59:02;;;;;;;;;;;;;;;26.61;58.15;96145.36;605547;234;67746;-64
2022/11/19 04:01:30;;;;;;;;;;;;;;;26.61;57.19;96145.36;605578;234;65158;-64
2022/11/19 04:06:43;;;;;;;;;;;;;;;26.58;54.59;96137.94;605527;234;67144;-65
2022/11/19 04:09:10;;;;;;;;;;;;;;;26.59;56.52;96144.11;605489;234;64993;-65
2022/11/19 04:11:38;;;;;;;;;;;;;;;26.56;57.03;96140.16;605558;234;67427;-65
2022/11/19 04:14:05;;;;;;;;;;;;;;;26.56;57.73;96151.72;605517;234;67005;-65
2022/11/19 04:16:32;;;;;;;;;;;;;;;26.57;58.18;96141.73;605561;234;65028;-65
2022/11/19 04:19:02;;;;;;;;;;;;;;;26.55;56.77;96154.77;605543;234;67061;-65
2022/11/19 04:21:29;;;;;;;;;;;;;;;26.55;56.63;96154.77;605538;234;67129;-67
2022/11/19 04:23:57;;;;;;;;;;;;;;;26.54;55.18;96172.03;605539;234;64864;-67
2022/11/19 04:26:24;;;;;;;;;;;;;;;26.53;58.77;96190.11;605544;234;67239;-67
2022/11/19 04:28:52;;;;;;;;;;;;;;;26.51;56.55;96181.55;605580;234;67257;-67
2022/11/19 04:31:19;;;;;;;;;;;;;;;26.52;55.80;96199.31;605527;234;65206;-68
2022/11/19 04:33:47;;;;;;;;;;;;;;;26.51;56.18;96207.71;605493;234;67195;-67
2022/11/19 04:36:14;;;;;;;;;;;;;;;26.50;56.41;96204.20;605541;234;67062;-67
2022/11/19 04:38:42;;;;;;;;;;;;;;;26.50;57.36;96206.11;605547;234;64988;-68
2022/11/19 04:41:09;;;;;;;;;;;;;;;26.49;55.24;96207.21;605547;234;67303;-68
2022/11/19 04:43:37;;;;;;;;;;;;;;;26.48;56.74;96224.50;605553;234;67082;-67
2022/11/19 04:46:04;;;;;;;;;;;;;;;26.47;56.75;96231.80;605550;234;65177;-68
2022/11/19 04:48:31;;;;;;;;;;;;;;;26.47;58.19;96231.02;605539;234;64918;-68
2022/11/19 04:50:59;;;;;;;;;;;;;;;26.46;57.45;96243.67;605589;234;64601;-68
2022/11/19 04:53:26;;;;;;;;;;;;;;;26.45;56.01;96242.11;605525;234;62909;-68
2022/11/19 04:55:54;;;;;;;;;;;;;;;26.47;56.96;96241.80;605534;234;64844;-68
2022/11/19 04:58:21;;;;;;;;;;;;;;;26.44;56.18;96240.53;605526;234;65264;-67
2022/11/19 05:00:49;;;;;;;;;;;;;;;26.45;55.37;96257.48;605547;234;63146;-67
2022/11/19 05:03:16;;;;;;;;;;;;;;;26.43;57.54;96254.31;605535;234;67220;-67
2022/11/19 05:05:44;;;;;;;;;;;;;;;26.43;57.44;96257.02;605519;234;67244;-67
2022/11/19 05:08:12;;;;;;;;;;;;;;;26.43;57.06;96265.87;605538;234;62726;-68
2022/11/19 05:10:39;;;;;;;;;;;;;;;26.41;56.53;96265.44;605537;234;67298;-68
2022/11/19 05:13:06;;;;;;;;;;;;;;;26.41;56.67;96275.40;605549;234;67074;-68
2022/11/19 05:15:34;;;;;;;;;;;;;;;26.40;56.98;96282.70;605548;234;65023;-68
2022/11/19 05:18:02;;;;;;;;;;;;;;;26.40;57.34;96296.16;605539;234;66895;-68
2022/11/19 05:20:29;;;;;;;;;;;;;;;26.37;57.30;96296.81;605559;234;67018;-68
2022/11/19 05:22:57;;;;;;;;;;;;;;;26.39;57.48;96307.28;605484;234;65120;-68
2022/11/19 05:25:24;;;;;;;;;;;;;;;26.37;56.92;96310.28;605524;234;67456;-68
2022/11/19 05:27:51;;;;;;;;;;;;;;;26.36;55.76;96322.19;605501;234;67096;-68
2022/11/19 05:30:19;;;;;;;;;;;;;;;26.35;56.66;96325.97;605535;234;65050;-68
2022/11/19 05:32:47;;;;;;;;;;;;;;;26.37;56.61;96333.75;605527;234;67185;-68
2022/11/19 05:35:14;;;;;;;;;;;;;;;26.34;56.39;96346.73;605523;234;66963;-69
2022/11/19 05:37:42;;;;;;;;;;;;;;;26.33;56.03;96347.08;605513;234;65065;-68
2022/11/19 05:40:10;;;;;;;;;;;;;;;26.31;57.66;96350.08;605549;234;67224;-68
2022/11/19 05:42:37;;;;;;;;;;;;;;;26.30;58.05;96345.81;605555;234;67079;-68
2022/11/19 05:45:05;;;;;;;;;;;;;;;26.32;56.33;96356.25;605554;234;64876;-69
2022/11/19 05:47:33;;;;;;;;;;;;;;;26.31;56.04;96365.45;605522;234;67334;-67
2022/11/19 05:50:00;;;;;;;;;;;;;;;26.31;55.60;96366.23;605427;234;66943;-67
2022/11/19 05:52:27;;;;;;;;;;;;;;;26.29;57.28;96384.62;605524;234;64876;-68
2022/11/19 05:54:56;;;;;;;;;;;;;;;26.27;57.90;96386.86;601290;234;67244;-67
2022/11/19 05:57:24;;;;;;;;;;;;;;;26.27;55.85;96399.52;605510;234;67281;-67
2022/11/19 05:59:51;;;;;;;;;;;;;;;26.27;56.39;96400.33;605476;234;65067;-67
2022/11/19 06:02:20;;;;;;;;;;;;;;;26.27;57.00;96408.41;605455;234;65904;-68
2022/11/19 06:04:47;;;;;;;;;;;;;;;26.26;58.55;96412.20;605540;234;66678;-68
2022/11/19 06:07:17;;;;;;;;;;;;;;;26.26;57.60;96406.02;605590;234;43655;-68
2022/11/19 06:09:44;;;;;;;;;;;;;;;26.25;55.95;96412.53;605494;234;67240;-68
2022/11/19 06:12:12;;;;;;;;;;;;;;;26.22;55.55;96427.42;605506;234;65590;-68
2022/11/19 06:14:40;;;;;;;;;;;;;;;26.22;56.50;96434.69;605496;234;62941;-68
2022/11/19 06:17:08;;;;;;;;;;;;;;;26.20;55.54;96429.64;605500;234;67416;-69
2022/11/19 06:19:35;;;;;;;;;;;;;;;26.21;57.14;96433.12;605528;234;67141;-68
2022/11/19 06:22:04;;;;;;;;;;;;;;;26.20;54.87;96437.72;605540;234;65071;-68
2022/11/19 06:24:31;;;;;;;;;;;;;;;26.19;55.92;96440.72;605486;234;67286;-65
2022/11/19 06:26:59;;;;;;;;;;;;;;;26.19;56.29;96449.61;605514;234;66807;-65
2022/11/19 06:29:26;;;;;;;;;;;;;;;26.19;55.41;96441.53;605542;234;62659;-66
2022/11/19 06:31:54;;;;;;;;;;;;;;;26.20;57.02;96445.80;605508;234;66471;-65
2022/11/19 06:34:21;;;;;;;;;;;;;;;26.18;56.94;96450.70;608874;233;66826;-65
2022/11/19 06:36:49;;;;;;;;;;;;;;;26.17;59.21;96446.44;609131;233;65393;-65
2022/11/19 06:39:16;;;;;;;;;;;;;;;26.17;58.06;96451.83;609193;233;67288;-65
2022/11/19 06:41:44;;;;;;;;;;;;;;;26.16;58.53;96447.53;609183;233;66839;-65
2022/11/19 06:44:11;;;;;;;;;;;;;;;26.15;56.04;96459.42;609058;233;62908;-65
2022/11/19 06:46:39;;;;;;;;;;;;;;;26.17;57.31;96469.89;609240;233;66783;-65
2022/11/19 06:49:06;;;;;;;;;;;;;;;26.18;58.45;96468.77;609113;233;66793;-65
2022/11/19 06:51:34;;;;;;;;;;;;;;;26.16;56.03;96471.77;608785;233;66283;-65
2022/11/19 06:54:01;;;;;;;;;;;;;;;26.15;57.47;96475.58;609147;233;67247;-65
2022/11/19 06:56:29;;;;;;;;;;;;;;;26.15;55.91;96483.66;609114;233;67008;-65
2022/11/19 06:58:58;;;;;;;;;;;;;;;26.14;56.53;96471.31;609242;233;42593;-65
2022/11/19 07:01:25;;;;;;;;;;;;;;;26.13;57.62;96492.05;609126;233;65056;-66
2022/11/19 07:03:53;;;;;;;;;;;;;;;26.12;55.36;96478.91;609071;233;64777;-65
2022/11/19 07:06:20;;;;;;;;;;;;;;;26.12;57.14;96477.00;609093;233;62651;-65
2022/11/19 07:08:48;;;;;;;;;;;;;;;26.10;56.85;96479.22;609122;233;64859;-62
2022/11/19 07:11:25;;;;;;;;;;;;;;;26.12;59.41;96485.09;609106;233;63812;-65
2022/11/19 07:13:56;;;;;;;;;;;;;;;26.11;59.23;96480.82;609170;233;65195;-63
2022/11/19 07:16:25;;;;;;;;;;;;;;;26.08;58.30;96492.23;608791;233;67298;-63
2022/11/19 07:18:53;;;;;;;;;;;;;;;26.04;56.24;96496.64;608808;233;66682;-63
2022/11/19 07:21:21;;;;;;;;;;;;;;;26.05;55.71;96483.97;609111;233;65444;-63
2022/11/19 07:23:48;;;;;;;;;;;;;;;26.04;55.68;96490.48;609109;233;67190;-63
2022/11/19 07:26:16;;;;;;;;;;;;;;;26.00;53.91;96495.70;609147;233;67618;-63
2022/11/19 07:28:43;;;;;;;;;;;;;;;26.01;54.77;96504.57;609120;233;65028;-63
2022/11/19 07:31:11;;;;;;;;;;;;;;;25.99;54.22;96499.48;609098;233;67447;-63
2022/11/19 07:33:38;;;;;;;;;;;;;;;25.99;55.47;96501.39;607513;233;67098;-63
2022/11/19 07:36:09;;;;;;;;;;;;;;;26.00;56.46;96502.97;606653;234;42544;-63
2022/11/19 07:38:36;;;;;;;;;;;;;;;26.00;53.32;96505.66;606669;234;65919;-63
2022/11/19 07:43:37;;;;;;;;;;;;;;;25.98;57.44;96508.69;599074;233;64756;-63
2022/11/19 07:46:07;;;;;;;;;;;;;;;25.98;55.47;96513.28;606690;234;66841;-63
2022/11/19 07:48:34;;;;;;;;;;;;;;;25.99;55.00;96515.64;606650;234;65010;-63
2022/11/19 07:51:02;;;;;;;;;;;;;;;26.00;56.05;96513.73;606574;234;62843;-63
2022/11/19 07:53:29;;;;;;;;;;;;;;;25.99;53.55;96509.47;606629;234;65215;-61
2022/11/19 07:55:58;;;;;;;;;;;;;;;26.00;54.27;96511.05;606679;234;65108;-63
2022/11/19 07:58:26;;;;;;;;;;;;;;;26.01;55.18;96515.34;606655;234;62940;-64
2022/11/19 08:00:53;;;;;;;;;;;;;;;26.01;53.99;96524.20;606700;234;67183;-64
2022/11/19 08:03:21;;;;;;;;;;;;;;;26.02;55.45;96523.09;606647;234;67055;-64
2022/11/19 08:05:48;;;;;;;;;;;;;;;26.04;53.93;96525.48;606681;234;62871;-67
2022/11/19 08:08:16;;;;;;;;;;;;;;;26.04;55.20;96518.19;606712;234;64895;-67
2022/11/19 08:10:43;;;;;;;;;;;;;;;26.06;54.94;96517.88;606669;234;65085;-60
2022/11/19 08:13:11;;;;;;;;;;;;;;;26.08;55.37;96529.11;606668;234;65056;-61
2022/11/19 08:15:38;;;;;;;;;;;;;;;26.08;56.45;96527.23;606661;234;67186;-61
2022/11/19 08:18:11;;;;;;;;;;;;;;;26.07;56.44;96535.61;606681;234;67068;-61
2022/11/19 08:20:40;;;;;;;;;;;;;;;26.08;54.38;96548.78;606668;234;62805;-64
2022/11/19 08:23:08;;;;;;;;;;;;;;;26.08;55.04;96543.39;606660;234;67246;-61
2022/11/19 08:25:38;;;;;;;;;;;;;;;26.10;55.37;96543.84;606720;234;45649;-62
2022/11/19 08:28:07;;;;;;;;;;;;;;;26.10;54.55;96543.84;606623;234;47704;-62
2022/11/19 08:30:34;;;;;;;;;;;;;;;26.13;57.37;96542.42;606688;234;67120;-62
2022/11/19 08:33:02;;;;;;;;;;;;;;;26.13;57.43;96543.21;606210;233;66819;-62
2022/11/19 08:35:29;;;;;;;;;;;;;;;26.13;55.51;96537.03;605543;234;65002;-62
2022/11/19 08:37:57;;;;;;;;;;;;;;;26.15;56.10;96537.52;605552;234;67201;-62
2022/11/19 08:40:25;;;;;;;;;;;;;;;26.16;57.62;96536.40;605509;234;67264;-62
2022/11/19 08:43:01;;;;;;;;;;;;;;;26.17;54.88;96534.52;605495;234;65087;-62
2022/11/19 08:45:32;;;;;;;;;;;;;;;26.17;56.10;96537.22;605576;234;48212;-62
2022/11/19 08:48:00;;;;;;;;;;;;;;;26.19;55.99;96535.80;605535;234;64957;-62
2022/11/19 08:50:28;;;;;;;;;;;;;;;26.21;55.19;96538.16;605520;234;65211;-62
2022/11/19 08:52:57;;;;;;;;;;;;;;;26.22;53.79;96537.03;605522;234;65940;-62
2022/11/19 08:55:24;;;;;;;;;;;;;;;26.22;56.66;96535.16;605522;234;64946;-62
2022/11/19 08:57:52;;;;;;;;;;;;;;;26.25;55.45;96544.52;605532;234;62867;-62
2022/11/19 09:00:20;;;;;;;;;;;;;;;26.25;56.09;96550.69;605518;234;64766;-62
2022/11/19 09:02:50;;;;;;;;;;;;;;;26.25;56.28;96550.69;605529;234;67016;-62
2022/11/19 09:05:19;;;;;;;;;;;;;;;26.25;56.57;96553.38;605521;234;64918;-61
2022/11/19 09:07:46;;;;;;;;;;;;;;;26.27;55.92;96553.05;605467;234;67280;-61
2022/11/19 09:10:14;;;;;;;;;;;;;;;26.28;55.06;96555.44;605493;234;64787;-61
2022/11/19 09:12:41;;;;;;;;;;;;;;;26.28;57.16;96558.13;605524;234;62750;-62
2022/11/19 09:15:11;;;;;;;;;;;;;;;26.30;57.05;96547.02;605526;234;67062;-63
2022/11/19 09:17:40;;;;;;;;;;;;;;;26.30;57.46;96547.02;605493;234;64823;-63
2022/11/19 09:20:09;;;;;;;;;;;;;;;26.31;58.78;96543.23;605514;234;65132;-63
2022/11/19 09:22:37;;;;;;;;;;;;;;;26.30;57.22;96534.37;605471;233;65383;-64
2022/11/19 09:25:05;;;;;;;;;;;;;;;26.32;57.07;96544.81;605497;234;67162;-68
2022/11/19 09:27:32;;;;;;;;;;;;;;;26.31;57.25;96538.64;605524;234;65118;-68
2022/11/19 09:30:02;;;;;;;;;;;;;;;26.33;56.90;96536.42;605484;234;67061;-69
2022/11/19 09:32:29;;;;;;;;;;;;;;;26.34;56.93;96543.39;605466;234;67026;-62
2022/11/19 09:34:57;;;;;;;;;;;;;;;26.34;54.98;96532.61;605496;234;65167;-61
2022/11/19 09:37:24;;;;;;;;;;;;;;;26.36;56.86;96535.00;605491;234;67246;-61
2022/11/19 09:39:52;;;;;;;;;;;;;;;26.38;56.15;96542.75;605512;234;67024;-61
2022/11/19 09:42:27;;;;;;;;;;;;;;;26.38;54.72;96545.44;605549;234;65041;-61
2022/11/19 09:44:59;;;;;;;;;;;;;;;26.40;55.70;96537.84;605524;234;64955;-60
2022/11/19 09:47:44;;;;;;;;;;;;;;;26.40;55.32;96529.77;605381;234;66734;-69
2022/11/19 09:50:26;;;;;;;;;;;;;;;26.41;56.61;96536.72;605505;234;64867;-70
2022/11/19 09:52:58;;;;;;;;;;;;;;;26.43;57.11;96529.12;605373;234;67169;-69
2022/11/19 09:55:30;;;;;;;;;;;;;;;26.42;56.39;96525.64;605500;234;67314;-69
2022/11/19 09:57:59;;;;;;;;;;;;;;;26.43;54.80;96529.12;604246;234;62862;-70
2022/11/19 10:00:28;;;;;;;;;;;;;;;26.44;56.52;96530.72;605472;234;67329;-70
2022/11/19 10:02:57;;;;;;;;;;;;;;;26.44;56.05;96538.81;605507;234;65131;-69
2022/11/19 10:05:41;;;;;;;;;;;;;;;26.45;56.26;96540.37;605522;234;64998;-69
2022/11/19 10:08:13;;;;;;;;;;;;;;;26.45;57.13;96535.78;605398;232;67103;-69
2022/11/19 10:10:46;;;;;;;;;;;;;;;26.46;57.08;96526.58;605391;234;67159;-68
2022/11/19 10:13:24;;;;;;;;;;;;;;;26.48;54.81;96523.58;605429;234;64880;-69
2022/11/19 10:15:54;;;;;;;;;;;;;;;26.49;55.49;96511.67;604479;234;66957;-68
2022/11/19 10:18:28;;;;;;;;;;;;;;;26.49;55.01;96508.98;605474;234;66920;-69
2022/11/19 10:21:06;;;;;;;;;;;;;;;26.51;55.82;96506.80;605342;234;62663;-68
2022/11/19 10:23:38;;;;;;;;;;;;;;;26.52;55.19;96508.40;605546;234;64990;-68
2022/11/19 10:26:07;;;;;;;;;;;;;;;26.53;56.49;96496.50;599674;234;64739;-68
2022/11/19 10:28:39;;;;;;;;;;;;;;;26.54;54.45;96495.37;605512;234;62932;-68
2022/11/19 10:31:19;;;;;;;;;;;;;;;26.54;55.63;96488.08;605302;234;65199;-69
2022/11/19 10:33:47;;;;;;;;;;;;;;;26.57;56.17;96492.04;600740;234;66947;-69
2022/11/19 10:36:28;;;;;;;;;;;;;;;26.56;55.66;96477.78;605465;234;65335;-69
2022/11/19 10:39:06;;;;;;;;;;;;;;;26.58;56.65;96464.00;605061;233;44254;-69
2022/11/19 10:41:35;;;;;;;;;;;;;;;26.59;54.93;96464.78;605523;234;66806;-69
2022/11/19 10:44:39;;;;;;;;;;;;;;;26.59;55.18;96484.44;605450;234;67183;-69
2022/11/19 10:47:14;;;;;;;;;;;;;;;26.60;57.86;96480.64;605505;234;64792;-69
2022/11/19 10:49:42;;;;;;;;;;;;;;;26.61;55.69;96484.91;605451;234;66743;-69
2022/11/19 10:52:27;;;;;;;;;;;;;;;26.61;55.40;96474.13;605544;234;46079;-69
2022/11/19 10:54:59;;;;;;;;;;;;;;;26.63;57.65;96471.91;605564;234;66988;-69
2022/11/19 10:57:28;;;;;;;;;;;;;;;26.64;53.34;96464.62;605504;234;66851;-69
2022/11/19 10:59:58;;;;;;;;;;;;;;;26.65;55.68;96466.98;605510;234;65254;-69
2022/11/19 11:02:46;;;;;;;;;;;;;;;26.65;56.31;96461.59;605403;234;67018;-69
2022/11/19 11:05:17;;;;;;;;;;;;;;;26.66;54.31;96457.80;605519;234;64572;-69
2022/11/19 11:07:49;;;;;;;;;;;;;;;26.68;54.34;96452.88;605533;234;65399;-69
2022/11/19 11:10:35;;;;;;;;;;;;;;;26.69;55.11;96451.76;605564;234;67414;-69
2022/11/19 11:16:17;;;;;;;;;;;;;;;26.71;54.92;96452.23;605583;234;47356;-68
2022/11/19 11:18:45;;;;;;;;;;;;;;;26.72;57.60;96456.50;605521;234;65044;-69
2022/11/19 11:21:17;;;;;;;;;;;;;;;26.72;57.88;96456.50;605497;234;66955;-69
2022/11/19 11:23:55;;;;;;;;;;;;;;;26.72;56.84;96456.50;605145;234;62977;-69
2022/11/19 11:26:27;;;;;;;;;;;;;;;26.72;55.22;96453.81;605555;234;67283;-68
2022/11/19 11:29:01;;;;;;;;;;;;;;;26.73;55.06;96452.69;605548;234;67096;-69
2022/11/19 11:31:31;;;;;;;;;;;;;;;26.74;56.18;96456.98;605539;234;64993;-68
2022/11/19 11:34:01;;;;;;;;;;;;;;;26.76;56.15;96462.03;605439;233;64344;-68
2022/11/19 11:36:29;;;;;;;;;;;;;;;26.76;54.65;96462.03;605567;234;64813;-69
2022/11/19 11:39:00;;;;;;;;;;;;;;;26.78;55.47;96454.42;605529;234;62932;-68
2022/11/19 11:41:39;;;;;;;;;;;;;;;26.78;54.37;96449.81;605525;234;67444;-68
2022/11/19 11:44:16;;;;;;;;;;;;;;;26.81;53.90;96447.59;605515;233;46648;-69
2022/11/19 11:46:46;;;;;;;;;;;;;;;26.81;53.97;96442.99;605549;234;64955;-68
2022/11/19 11:49:24;;;;;;;;;;;;;;;26.82;54.46;96441.89;601169;234;65185;-68
2022/11/19 11:51:57;;;;;;;;;;;;;;;26.82;54.99;96441.08;605569;234;67122;-68
2022/11/19 11:54:26;;;;;;;;;;;;;;;26.83;53.89;96438.08;605395;234;65147;-68
2022/11/19 11:56:57;;;;;;;;;;;;;;;26.85;55.71;96448.55;605525;234;49061;-69
2022/11/19 11:59:26;;;;;;;;;;;;;;;26.85;56.29;96446.64;605159;234;64819;-68
2022/11/19 12:01:56;;;;;;;;;;;;;;;26.85;54.72;96452.03;605441;234;65079;-68
2022/11/19 12:04:24;;;;;;;;;;;;;;;26.86;58.08;96447.42;605449;234;67243;-68
2022/11/19 12:06:56;;;;;;;;;;;;;;;26.85;54.05;96440.46;605451;234;66916;-68
2022/11/19 12:09:42;;;;;;;;;;;;;;;26.86;54.28;96444.73;604661;234;65073;-68
2022/11/19 12:12:11;;;;;;;;;;;;;;;26.88;54.70;96455.98;604690;234;65794;-69
2022/11/19 12:14:43;;;;;;;;;;;;;;;26.87;57.39;96441.69;604388;234;66822;-69
2022/11/19 12:17:12;;;;;;;;;;;;;;;26.86;55.83;96431.25;605302;234;65030;-68
2022/11/19 12:19:53;;;;;;;;;;;;;;;26.89;54.34;96430.59;605329;234;67263;-68
2022/11/19 12:22:22;;;;;;;;;;;;;;;26.89;56.60;96417.12;605281;234;66772;-68
2022/11/19 12:24:51;;;;;;;;;;;;;;;26.89;56.20;96425.20;605542;234;65051;-68
2022/11/19 12:27:20;;;;;;;;;;;;;;;26.89;53.76;96436.77;605489;234;67338;-68
2022/11/19 12:29:55;;;;;;;;;;;;;;;26.90;56.34;96435.68;605489;234;67525;-68
2022/11/19 12:32:33;;;;;;;;;;;;;;;26.90;55.10;96435.68;605469;234;62742;-67
2022/11/19 12:35:03;;;;;;;;;;;;;;;26.90;57.27;96434.86;605168;234;67217;-69
2022/11/19 12:37:32;;;;;;;;;;;;;;;26.89;53.87;96442.17;605570;234;64934;-68
2022/11/19 12:40:01;;;;;;;;;;;;;;;26.90;53.74;96448.34;605500;234;62947;-69
2022/11/19 12:42:39;;;;;;;;;;;;;;;26.91;57.28;96445.34;605420;234;64989;-71
2022/11/19 12:45:11;;;;;;;;;;;;;;;26.91;56.50;96456.13;605534;234;67101;-69
2022/11/19 12:47:59;;;;;;;;;;;;;;;26.92;55.32;96457.70;605147;234;65252;-68
2022/11/19 12:50:28;;;;;;;;;;;;;;;26.92;57.56;96449.61;605525;234;64703;-69
2022/11/19 12:52:57;;;;;;;;;;;;;;;26.93;58.00;96450.42;605366;234;63823;-68
2022/11/19 12:55:26;;;;;;;;;;;;;;;26.93;57.25;96445.03;605177;234;64865;-69
2022/11/19 12:58:01;;;;;;;;;;;;;;;26.95;55.79;96453.56;605508;234;67449;-68
2022/11/19 13:00:30;;;;;;;;;;;;;;;26.95;56.53;96440.08;603078;234;67041;-68
2022/11/19 13:03:02;;;;;;;;;;;;;;;26.96;56.75;96447.08;605509;234;62876;-68
2022/11/19 13:05:31;;;;;;;;;;;;;;;26.96;55.51;96449.77;605504;234;67153;-69
2022/11/19 13:08:00;;;;;;;;;;;;;;;26.98;55.33;96463.70;605499;234;67079;-68
2022/11/19 13:10:32;;;;;;;;;;;;;;;26.96;58.23;96474.04;604834;234;64974;-67
2022/11/19 13:13:00;;;;;;;;;;;;;;;26.95;54.96;96475.14;604882;234;67103;-68
2022/11/19 13:15:31;;;;;;;;;;;;;;;26.94;56.93;96479.74;605390;234;65079;-68
2022/11/19 13:18:00;;;;;;;;;;;;;;;26.94;55.80;96477.05;605357;234;65144;-68
2022/11/19 13:20:33;;;;;;;;;;;;;;;26.94;55.59;96474.34;605317;234;65504;-68